TimeEST,TemperatureF,Dew PointF,Humidity,Sea Level PressureIn,VisibilityMPH,Wind Direction,Wind SpeedMPH,Gust SpeedMPH,PrecipitationIn,Events,Conditions,WindDirDegrees,DateUTC
12:15 AM,39.2,37.4,93,30.08,10.0,Calm,Calm,-,N/A,,Clear,0,2012-11-06 05:15:00
12:35 AM,39.2,37.4,93,30.07,10.0,Calm,Calm,-,N/A,,Clear,0,2012-11-06 05:35:00
12:55 AM,39.2,37.4,93,30.07,10.0,Calm,Calm,-,N/A,,Clear,0,2012-11-06 05:55:00
1:15 AM,39.2,37.4,93,30.07,10.0,Calm,Calm,-,N/A,,Clear,0,2012-11-06 06:15:00
1:35 AM,41.0,39.2,93,30.07,10.0,Calm,Calm,-,N/A,,Clear,0,2012-11-06 06:35:00
1:55 AM,41.0,37.4,87,30.06,10.0,ENE,3.5,-,N/A,,Clear,70,2012-11-06 06:55:00
2:15 AM,41.0,37.4,87,30.06,10.0,East,4.6,-,N/A,,Clear,90,2012-11-06 07:15:00
2:35 AM,42.8,37.4,81,30.06,10.0,East,3.5,-,N/A,,Clear,90,2012-11-06 07:35:00
2:55 AM,42.8,35.6,76,30.07,10.0,East,3.5,-,N/A,,Clear,90,2012-11-06 07:55:00
3:35 AM,42.8,35.6,76,30.06,10.0,ENE,3.5,-,N/A,,Clear,60,2012-11-06 08:35:00
3:55 AM,42.8,35.6,76,30.05,10.0,East,4.6,-,N/A,,Clear,90,2012-11-06 08:55:00
4:15 AM,42.8,35.6,76,30.03,10.0,NE,4.6,-,N/A,,Clear,50,2012-11-06 09:15:00
4:35 AM,41.0,35.6,81,30.06,10.0,East,4.6,-,N/A,,Clear,80,2012-11-06 09:35:00
4:55 AM,41.0,35.6,81,30.06,10.0,East,3.5,-,N/A,,Clear,80,2012-11-06 09:55:00
5:15 AM,41.0,33.8,76,30.07,10.0,East,5.8,-,N/A,,Partly Cloudy,90,2012-11-06 10:15:00
5:35 AM,41.0,35.6,81,30.06,10.0,East,3.5,-,N/A,,Partly Cloudy,80,2012-11-06 10:35:00
5:55 AM,41.0,35.6,81,30.06,10.0,NE,5.8,-,N/A,,Clear,40,2012-11-06 10:55:00
6:15 AM,41.0,35.6,81,30.09,10.0,Calm,Calm,-,N/A,,Partly Cloudy,0,2012-11-06 11:15:00
6:35 AM,41.0,35.6,81,30.08,10.0,NE,3.5,-,N/A,,Mostly Cloudy,40,2012-11-06 11:35:00
6:55 AM,41.0,35.6,81,30.09,10.0,Calm,Calm,-,N/A,,Partly Cloudy,0,2012-11-06 11:55:00
7:15 AM,41.0,35.6,81,30.10,10.0,Calm,Calm,-,N/A,,Clear,0,2012-11-06 12:15:00
7:35 AM,41.0,35.6,81,30.08,10.0,ENE,4.6,-,N/A,,Clear,70,2012-11-06 12:35:00
7:55 AM,41.0,35.6,81,30.09,10.0,ENE,5.8,-,N/A,,Clear,60,2012-11-06 12:55:00
8:15 AM,41.0,35.6,81,30.09,10.0,ENE,6.9,-,N/A,,Clear,60,2012-11-06 13:15:00
8:35 AM,41.0,35.6,81,30.10,10.0,ENE,4.6,-,N/A,,Clear,60,2012-11-06 13:35:00
8:55 AM,41.0,35.6,81,30.11,10.0,ENE,3.5,-,N/A,,Clear,60,2012-11-06 13:55:00
9:15 AM,41.0,35.6,81,30.10,10.0,NE,4.6,-,N/A,,Clear,40,2012-11-06 14:15:00
9:35 AM,41.0,33.8,76,30.09,10.0,NNE,8.1,-,N/A,,Clear,30,2012-11-06 14:35:00
9:55 AM,42.8,33.8,70,30.10,10.0,NNE,9.2,-,N/A,,Clear,30,2012-11-06 14:55:00
10:15 AM,42.8,32.0,66,30.10,10.0,NE,6.9,-,N/A,,Clear,50,2012-11-06 15:15:00
10:35 AM,42.8,33.8,70,30.10,10.0,NNE,6.9,-,N/A,,Clear,30,2012-11-06 15:35:00
10:55 AM,42.8,33.8,70,30.09,10.0,North,8.1,-,N/A,,Clear,10,2012-11-06 15:55:00
11:15 AM,44.6,33.8,66,30.08,10.0,NNE,9.2,-,N/A,,Clear,20,2012-11-06 16:15:00
11:35 AM,42.8,37.4,81,30.08,8.0,NNE,5.8,-,N/A,Rain,Light Rain,20,2012-11-06 16:35:00
11:55 AM,42.8,37.4,81,30.06,7.0,North,10.4,-,N/A,Rain,Light Rain,10,2012-11-06 16:55:00
12:15 PM,42.8,39.2,87,30.05,10.0,North,8.1,-,N/A,,Clear,10,2012-11-06 17:15:00
12:35 PM,44.6,37.4,76,30.04,10.0,NNE,10.4,-,N/A,,Clear,30,2012-11-06 17:35:00
12:55 PM,44.6,37.4,76,30.02,10.0,NNE,9.2,-,N/A,,Partly Cloudy,20,2012-11-06 17:55:00
1:15 PM,46.4,37.4,71,30.01,10.0,NNE,12.7,18.4,N/A,,Scattered Clouds,20,2012-11-06 18:15:00
1:35 PM,48.2,35.6,62,30.00,10.0,NE,11.5,18.4,N/A,,Partly Cloudy,40,2012-11-06 18:35:00
1:55 PM,48.2,32.0,54,29.98,10.0,North,11.5,17.3,N/A,,Clear,10,2012-11-06 18:55:00
2:15 PM,50.0,32.0,50,29.97,10.0,NNE,8.1,-,N/A,,Clear,20,2012-11-06 19:15:00
2:35 PM,50.0,32.0,50,29.97,10.0,NE,6.9,17.3,N/A,,Clear,40,2012-11-06 19:35:00
2:55 PM,50.0,30.2,47,29.97,10.0,North,10.4,-,N/A,,Clear,10,2012-11-06 19:55:00
3:15 PM,50.0,28.4,43,29.97,10.0,North,10.4,-,N/A,,Clear,10,2012-11-06 20:15:00
3:35 PM,50.0,30.2,47,29.97,10.0,NNE,9.2,-,N/A,,Partly Cloudy,20,2012-11-06 20:35:00
3:55 PM,48.2,28.4,46,29.97,10.0,NNE,8.1,16.1,N/A,,Partly Cloudy,30,2012-11-06 20:55:00
4:15 PM,48.2,30.2,50,29.97,10.0,North,10.4,-,N/A,,Clear,10,2012-11-06 21:15:00
4:35 PM,48.2,30.2,50,29.97,10.0,NNE,11.5,-,N/A,,Clear,30,2012-11-06 21:35:00
4:55 PM,46.4,32.0,57,29.98,10.0,NE,4.6,-,N/A,,Clear,50,2012-11-06 21:55:00
5:15 PM,44.6,32.0,61,29.98,10.0,NNE,5.8,-,N/A,,Clear,30,2012-11-06 22:15:00
5:35 PM,42.8,33.8,70,29.99,10.0,NNE,3.5,-,N/A,,Partly Cloudy,30,2012-11-06 22:35:00
5:55 PM,44.6,32.0,61,29.98,10.0,NNE,5.8,-,N/A,,Partly Cloudy,20,2012-11-06 22:55:00
6:35 PM,41.0,35.6,81,29.99,10.0,Calm,Calm,-,N/A,,Partly Cloudy,0,2012-11-06 23:35:00
6:55 PM,39.2,35.6,87,29.99,10.0,Calm,Calm,-,N/A,,Clear,0,2012-11-06 23:55:00
7:15 PM,39.2,35.6,87,30.00,10.0,Calm,Calm,-,N/A,,Clear,0,2012-11-07 00:15:00
7:35 PM,37.4,35.6,93,29.99,10.0,North,3.5,-,N/A,,Clear,10,2012-11-07 00:35:00
7:55 PM,35.6,35.6,100,29.99,10.0,Calm,Calm,-,N/A,,Clear,0,2012-11-07 00:55:00
8:15 PM,35.6,35.6,100,29.99,10.0,Calm,Calm,-,N/A,,Clear,0,2012-11-07 01:15:00
8:35 PM,35.6,35.6,100,29.99,10.0,Calm,Calm,-,N/A,,Clear,0,2012-11-07 01:35:00
8:55 PM,35.6,35.6,100,29.99,10.0,Calm,Calm,-,N/A,Rain,Light Rain,0,2012-11-07 01:55:00
9:15 PM,33.8,33.8,100,29.98,10.0,NE,3.5,-,N/A,,Clear,40,2012-11-07 02:15:00
9:35 PM,33.8,33.8,100,29.97,10.0,NE,3.5,-,N/A,,Clear,40,2012-11-07 02:35:00
9:55 PM,35.6,35.6,100,29.97,10.0,Calm,Calm,-,N/A,,Clear,0,2012-11-07 02:55:00
10:15 PM,33.8,33.8,100,29.97,10.0,Calm,Calm,-,N/A,Rain,Light Rain,0,2012-11-07 03:15:00
10:35 PM,35.6,33.8,93,29.97,10.0,North,5.8,-,N/A,Rain,Light Rain,360,2012-11-07 03:35:00
10:55 PM,35.6,33.8,93,29.97,10.0,North,5.8,-,N/A,Rain,Light Rain,10,2012-11-07 03:55:00
11:15 PM,35.6,33.8,93,29.97,10.0,North,6.9,-,N/A,Rain,Light Rain,360,2012-11-07 04:15:00
11:35 PM,35.6,33.8,93,29.96,10.0,North,5.8,-,N/A,Rain,Light Rain,10,2012-11-07 04:35:00
11:55 PM,35.6,33.8,93,29.95,10.0,NNE,8.1,-,N/A,,Clear,30,2012-11-07 04:55:00